Weidman, Michigan
Current Conditions -  °F | °C
As of 2:18 PM on Tuesday 21 Oct 2014 (Local Time) from KMOP Reporting Station
Broken Clouds Broken Clouds  
Wind Chill: 43°   Ceiling: 3300
Heat Index: 47°   Visibility: 10mi
Dew Point: 34°   Wind: 8mph
Humidity: 60%   Direction: 360°N
Pressure: 30.14"   Gusts: NA
Location:  43.69°N, 84.97°W
Report Text: KMOP 211818Z AUTO 36007KT 10SM BKN033 09/01 A3014 RMK AO2 T00850011
Loading
Personal Weather Stations






























Interactive Weather Map
Tropical Storm Tracking
New forecast layout! Learn more

10-Day Weather Forecast

Advertisements
Track Severe Weather on mobile